sensor_id;sensor_type;location;lat;lon;timestamp;pressure;altitude;pressure_sealevel;temperature;humidity
77153;BME280;66124;51.146;17.072;2023-05-07T00:01:52;100574.91;;;8.86;79.45
77153;BME280;66124;51.146;17.072;2023-05-07T00:04:22;100570.93;;;8.86;79.59
77153;BME280;66124;51.146;17.072;2023-05-07T00:06:52;100574.55;;;8.87;79.59
77153;BME280;66124;51.146;17.072;2023-05-07T00:09:21;100575.41;;;8.87;79.37
77153;BME280;66124;51.146;17.072;2023-05-07T00:11:50;100575.31;;;8.88;79.28
77153;BME280;66124;51.146;17.072;2023-05-07T00:17:42;100576.35;;;8.86;79.44
77153;BME280;66124;51.146;17.072;2023-05-07T00:27:59;100582.21;;;8.92;79.62
77153;BME280;66124;51.146;17.072;2023-05-07T00:30:28;100582.80;;;8.90;79.52
77153;BME280;66124;51.146;17.072;2023-05-07T00:32:57;100582.77;;;8.90;79.59
77153;BME280;66124;51.146;17.072;2023-05-07T00:35:27;100583.70;;;8.90;79.56
77153;BME280;66124;51.146;17.072;2023-05-07T00:37:57;100580.55;;;8.90;79.43
77153;BME280;66124;51.146;17.072;2023-05-07T00:40:28;100585.77;;;8.90;79.54
77153;BME280;66124;51.146;17.072;2023-05-07T00:42:57;100589.09;;;8.90;79.43
77153;BME280;66124;51.146;17.072;2023-05-07T00:45:27;100591.59;;;8.91;79.52
77153;BME280;66124;51.146;17.072;2023-05-07T00:47:59;100595.27;;;8.91;79.44
77153;BME280;66124;51.146;17.072;2023-05-07T00:50:29;100594.71;;;8.91;79.47
77153;BME280;66124;51.146;17.072;2023-05-07T00:52:59;100594.55;;;8.91;79.51
77153;BME280;66124;51.146;17.072;2023-05-07T00:55:29;100595.10;;;8.91;79.52
77153;BME280;66124;51.146;17.072;2023-05-07T00:57:59;100598.83;;;8.91;79.47
77153;BME280;66124;51.146;17.072;2023-05-07T01:00:29;100603.02;;;8.91;79.57
77153;BME280;66124;51.146;17.072;2023-05-07T01:02:58;100601.55;;;8.91;79.50
77153;BME280;66124;51.146;17.072;2023-05-07T01:05:29;100600.73;;;8.91;79.53
77153;BME280;66124;51.146;17.072;2023-05-07T01:07:59;100597.83;;;8.90;79.46
77153;BME280;66124;51.146;17.072;2023-05-07T01:10:29;100600.00;;;8.90;79.55
77153;BME280;66124;51.146;17.072;2023-05-07T01:12:59;100599.31;;;8.88;79.59
77153;BME280;66124;51.146;17.072;2023-05-07T01:15:29;100604.39;;;8.86;79.52
77153;BME280;66124;51.146;17.072;2023-05-07T01:17:58;100604.89;;;8.85;79.75
77153;BME280;66124;51.146;17.072;2023-05-07T01:20:29;100601.02;;;8.83;79.83
77153;BME280;66124;51.146;17.072;2023-05-07T01:22:59;100596.52;;;8.81;79.77
77153;BME280;66124;51.146;17.072;2023-05-07T01:25:29;100598.68;;;8.80;79.76
77153;BME280;66124;51.146;17.072;2023-05-07T01:27:59;100599.48;;;8.80;79.84
77153;BME280;66124;51.146;17.072;2023-05-07T01:30:29;100602.29;;;8.80;79.86
77153;BME280;66124;51.146;17.072;2023-05-07T01:33:01;100597.43;;;8.79;79.87
77153;BME280;66124;51.146;17.072;2023-05-07T01:35:37;100596.71;;;8.78;79.89
77153;BME280;66124;51.146;17.072;2023-05-07T01:38:05;100599.33;;;8.78;79.84
77153;BME280;66124;51.146;17.072;2023-05-07T01:40:34;100604.63;;;8.76;79.82
77153;BME280;66124;51.146;17.072;2023-05-07T01:50:48;100609.48;;;8.76;79.57
77153;BME280;66124;51.146;17.072;2023-05-07T01:53:18;100613.36;;;8.76;79.66
77153;BME280;66124;51.146;17.072;2023-05-07T01:55:47;100613.09;;;8.75;79.75
77153;BME280;66124;51.146;17.072;2023-05-07T01:58:17;100613.26;;;8.75;79.69
77153;BME280;66124;51.146;17.072;2023-05-07T02:00:46;100611.67;;;8.75;79.66
77153;BME280;66124;51.146;17.072;2023-05-07T02:03:16;100610.98;;;8.75;79.72
77153;BME280;66124;51.146;17.072;2023-05-07T02:05:45;100611.73;;;8.73;79.59
77153;BME280;66124;51.146;17.072;2023-05-07T02:08:15;100614.29;;;8.70;79.58
77153;BME280;66124;51.146;17.072;2023-05-07T02:10:44;100620.09;;;8.68;79.52
77153;BME280;66124;51.146;17.072;2023-05-07T02:13:16;100619.16;;;8.67;79.63
77153;BME280;66124;51.146;17.072;2023-05-07T02:15:45;100620.86;;;8.66;79.56
77153;BME280;66124;51.146;17.072;2023-05-07T02:18:15;100620.63;;;8.64;79.56
77153;BME280;66124;51.146;17.072;2023-05-07T02:20:47;100622.02;;;8.62;79.56
77153;BME280;66124;51.146;17.072;2023-05-07T02:23:16;100621.58;;;8.61;79.60
77153;BME280;66124;51.146;17.072;2023-05-07T02:25:46;100625.13;;;8.61;79.43
77153;BME280;66124;51.146;17.072;2023-05-07T02:28:15;100623.02;;;8.61;79.49
77153;BME280;66124;51.146;17.072;2023-05-07T02:30:44;100622.42;;;8.60;79.55
77153;BME280;66124;51.146;17.072;2023-05-07T02:33:14;100620.52;;;8.60;79.40
77153;BME280;66124;51.146;17.072;2023-05-07T02:35:43;100622.84;;;8.58;79.38
77153;BME280;66124;51.146;17.072;2023-05-07T02:38:12;100623.47;;;8.58;79.45
77153;BME280;66124;51.146;17.072;2023-05-07T02:40:42;100625.87;;;8.60;79.45
77153;BME280;66124;51.146;17.072;2023-05-07T02:43:11;100621.27;;;8.61;79.51
77153;BME280;66124;51.146;17.072;2023-05-07T02:45:41;100624.65;;;8.59;79.49
77153;BME280;66124;51.146;17.072;2023-05-07T02:48:10;100633.06;;;8.54;79.50
77153;BME280;66124;51.146;17.072;2023-05-07T02:50:39;100639.22;;;8.50;79.47
77153;BME280;66124;51.146;17.072;2023-05-07T02:56:31;100639.04;;;8.47;79.51
77153;BME280;66124;51.146;17.072;2023-05-07T02:59:00;100641.37;;;8.46;79.50
77153;BME280;66124;51.146;17.072;2023-05-07T03:01:28;100640.58;;;8.45;79.46
77153;BME280;66124;51.146;17.072;2023-05-07T03:10:59;100638.86;;;8.44;79.07
77153;BME280;66124;51.146;17.072;2023-05-07T03:13:29;100640.61;;;8.40;79.10
77153;BME280;66124;51.146;17.072;2023-05-07T03:19:32;100649.15;;;8.35;79.14
77153;BME280;66124;51.146;17.072;2023-05-07T03:22:04;100650.73;;;8.33;79.05
77153;BME280;66124;51.146;17.072;2023-05-07T03:24:33;100653.77;;;8.33;79.09
77153;BME280;66124;51.146;17.072;2023-05-07T03:27:03;100652.09;;;8.32;79.18
77153;BME280;66124;51.146;17.072;2023-05-07T03:29:32;100655.59;;;8.32;79.10
77153;BME280;66124;51.146;17.072;2023-05-07T03:32:01;100657.38;;;8.30;78.99
77153;BME280;66124;51.146;17.072;2023-05-07T03:34:31;100664.90;;;8.28;79.13
77153;BME280;66124;51.146;17.072;2023-05-07T03:37:00;100663.42;;;8.27;79.13
77153;BME280;66124;51.146;17.072;2023-05-07T03:39:29;100663.11;;;8.27;79.08
77153;BME280;66124;51.146;17.072;2023-05-07T03:41:59;100664.27;;;8.27;79.04
77153;BME280;66124;51.146;17.072;2023-05-07T03:44:28;100664.62;;;8.29;79.05
77153;BME280;66124;51.146;17.072;2023-05-07T03:46:57;100663.05;;;8.29;78.99
77153;BME280;66124;51.146;17.072;2023-05-07T03:49:27;100665.96;;;8.30;78.96
77153;BME280;66124;51.146;17.072;2023-05-07T03:51:56;100671.84;;;8.30;78.88
77153;BME280;66124;51.146;17.072;2023-05-07T03:54:25;100677.14;;;8.32;78.84
77153;BME280;66124;51.146;17.072;2023-05-07T03:56:55;100681.41;;;8.31;78.78
77153;BME280;66124;51.146;17.072;2023-05-07T03:59:24;100682.80;;;8.30;78.77
77153;BME280;66124;51.146;17.072;2023-05-07T04:01:56;100692.69;;;8.29;78.71
77153;BME280;66124;51.146;17.072;2023-05-07T04:04:25;100694.95;;;8.29;78.81
77153;BME280;66124;51.146;17.072;2023-05-07T04:06:55;100698.15;;;8.30;78.69
77153;BME280;66124;51.146;17.072;2023-05-07T04:09:24;100701.86;;;8.30;79.06
77153;BME280;66124;51.146;17.072;2023-05-07T04:11:53;100702.40;;;8.28;79.20
77153;BME280;66124;51.146;17.072;2023-05-07T04:14:23;100707.70;;;8.29;79.03
77153;BME280;66124;51.146;17.072;2023-05-07T04:16:52;100706.96;;;8.28;79.12
77153;BME280;66124;51.146;17.072;2023-05-07T04:19:21;100713.08;;;8.28;79.09
77153;BME280;66124;51.146;17.072;2023-05-07T04:21:51;100714.90;;;8.29;79.35
77153;BME280;66124;51.146;17.072;2023-05-07T04:24:19;100712.59;;;8.29;79.47
77153;BME280;66124;51.146;17.072;2023-05-07T04:35:20;100728.77;;;8.30;79.35
77153;BME280;66124;51.146;17.072;2023-05-07T04:37:49;100736.36;;;8.28;79.42
77153;BME280;66124;51.146;17.072;2023-05-07T04:40:19;100734.55;;;8.31;79.43
77153;BME280;66124;51.146;17.072;2023-05-07T04:42:49;100738.23;;;8.34;79.35
77153;BME280;66124;51.146;17.072;2023-05-07T04:45:18;100738.16;;;8.38;79.20
77153;BME280;66124;51.146;17.072;2023-05-07T04:47:49;100742.55;;;8.42;79.26
77153;BME280;66124;51.146;17.072;2023-05-07T04:50:18;100744.45;;;8.46;79.31
77153;BME280;66124;51.146;17.072;2023-05-07T04:52:47;100746.07;;;8.47;79.12
77153;BME280;66124;51.146;17.072;2023-05-07T04:55:17;100746.98;;;8.50;79.04
77153;BME280;66124;51.146;17.072;2023-05-07T04:57:47;100746.73;;;8.54;78.92
77153;BME280;66124;51.146;17.072;2023-05-07T05:00:16;100749.77;;;8.59;79.06
77153;BME280;66124;51.146;17.072;2023-05-07T05:02:46;100752.20;;;8.62;78.72
77153;BME280;66124;51.146;17.072;2023-05-07T05:05:15;100759.60;;;8.64;78.43
77153;BME280;66124;51.146;17.072;2023-05-07T05:07:45;100763.31;;;8.63;78.47
77153;BME280;66124;51.146;17.072;2023-05-07T05:10:14;100768.11;;;8.61;78.40
77153;BME280;66124;51.146;17.072;2023-05-07T05:12:43;100770.20;;;8.58;78.38
77153;BME280;66124;51.146;17.072;2023-05-07T05:15:13;100773.71;;;8.54;78.31
77153;BME280;66124;51.146;17.072;2023-05-07T05:17:43;100775.75;;;8.53;78.16
77153;BME280;66124;51.146;17.072;2023-05-07T05:20:12;100776.67;;;8.52;78.33
77153;BME280;66124;51.146;17.072;2023-05-07T05:22:42;100783.66;;;8.53;78.50
77153;BME280;66124;51.146;17.072;2023-05-07T05:25:12;100786.40;;;8.53;78.33
77153;BME280;66124;51.146;17.072;2023-05-07T05:27:41;100787.86;;;8.51;78.28
77153;BME280;66124;51.146;17.072;2023-05-07T05:30:12;100790.40;;;8.48;78.43
77153;BME280;66124;51.146;17.072;2023-05-07T05:32:41;100790.52;;;8.46;78.19
77153;BME280;66124;51.146;17.072;2023-05-07T05:35:11;100792.39;;;8.42;78.13
77153;BME280;66124;51.146;17.072;2023-05-07T05:37:40;100796.45;;;8.42;77.70
77153;BME280;66124;51.146;17.072;2023-05-07T05:40:11;100793.56;;;8.43;78.03
77153;BME280;66124;51.146;17.072;2023-05-07T05:42:41;100793.69;;;8.43;77.96
77153;BME280;66124;51.146;17.072;2023-05-07T05:45:11;100792.99;;;8.43;78.04
77153;BME280;66124;51.146;17.072;2023-05-07T05:47:39;100795.45;;;8.45;77.78
77153;BME280;66124;51.146;17.072;2023-05-07T05:56:01;100795.21;;;8.60;77.47
77153;BME280;66124;51.146;17.072;2023-05-07T05:58:31;100796.11;;;8.63;77.62
77153;BME280;66124;51.146;17.072;2023-05-07T06:01:00;100797.85;;;8.68;77.46
77153;BME280;66124;51.146;17.072;2023-05-07T06:03:30;100800.19;;;8.69;77.31
77153;BME280;66124;51.146;17.072;2023-05-07T06:05:59;100804.45;;;8.67;77.17
77153;BME280;66124;51.146;17.072;2023-05-07T06:08:31;100808.11;;;8.66;77.15
77153;BME280;66124;51.146;17.072;2023-05-07T06:11:02;100811.03;;;8.68;77.23
77153;BME280;66124;51.146;17.072;2023-05-07T06:13:31;100811.16;;;8.73;77.19
77153;BME280;66124;51.146;17.072;2023-05-07T06:16:01;100811.22;;;8.77;76.76
77153;BME280;66124;51.146;17.072;2023-05-07T06:18:30;100811.48;;;8.77;76.63
77153;BME280;66124;51.146;17.072;2023-05-07T06:20:59;100811.89;;;8.80;76.51
77153;BME280;66124;51.146;17.072;2023-05-07T06:23:29;100813.81;;;8.80;76.38
77153;BME280;66124;51.146;17.072;2023-05-07T06:25:58;100817.01;;;8.80;76.27
77153;BME280;66124;51.146;17.072;2023-05-07T06:28:28;100817.79;;;8.81;76.24
77153;BME280;66124;51.146;17.072;2023-05-07T06:31:12;100822.89;;;8.86;75.85
77153;BME280;66124;51.146;17.072;2023-05-07T06:33:41;100826.33;;;8.88;75.47
77153;BME280;66124;51.146;17.072;2023-05-07T06:36:26;100826.11;;;8.88;75.51
77153;BME280;66124;51.146;17.072;2023-05-07T06:38:56;100832.09;;;8.90;75.40
77153;BME280;66124;51.146;17.072;2023-05-07T06:41:25;100840.53;;;8.88;75.43
77153;BME280;66124;51.146;17.072;2023-05-07T06:43:54;100839.75;;;8.85;75.30
77153;BME280;66124;51.146;17.072;2023-05-07T06:46:24;100842.69;;;8.83;75.13
77153;BME280;66124;51.146;17.072;2023-05-07T06:48:53;100847.77;;;8.84;75.07
77153;BME280;66124;51.146;17.072;2023-05-07T06:51:23;100846.27;;;8.85;74.87
77153;BME280;66124;51.146;17.072;2023-05-07T06:53:52;100855.39;;;8.87;74.88
77153;BME280;66124;51.146;17.072;2023-05-07T06:56:21;100857.67;;;8.90;74.59
77153;BME280;66124;51.146;17.072;2023-05-07T06:58:51;100856.39;;;8.89;74.19
77153;BME280;66124;51.146;17.072;2023-05-07T07:01:20;100860.55;;;8.83;74.25
77153;BME280;66124;51.146;17.072;2023-05-07T07:03:50;100851.47;;;8.79;74.25
77153;BME280;66124;51.146;17.072;2023-05-07T07:06:19;100853.77;;;8.77;74.02
77153;BME280;66124;51.146;17.072;2023-05-07T07:16:45;100866.20;;;8.96;73.60
77153;BME280;66124;51.146;17.072;2023-05-07T07:19:15;100871.42;;;8.98;73.14
77153;BME280;66124;51.146;17.072;2023-05-07T07:21:44;100873.48;;;9.02;73.01
77153;BME280;66124;51.146;17.072;2023-05-07T07:24:14;100872.80;;;9.07;73.26
77153;BME280;66124;51.146;17.072;2023-05-07T07:26:43;100877.08;;;9.19;73.41
77153;BME280;66124;51.146;17.072;2023-05-07T07:29:14;100877.87;;;9.23;73.17
77153;BME280;66124;51.146;17.072;2023-05-07T07:31:44;100881.77;;;9.26;72.90
77153;BME280;66124;51.146;17.072;2023-05-07T07:34:13;100882.47;;;9.33;72.75
77153;BME280;66124;51.146;17.072;2023-05-07T07:36:42;100884.02;;;9.40;72.68
77153;BME280;66124;51.146;17.072;2023-05-07T07:39:11;100889.70;;;9.49;72.63
77153;BME280;66124;51.146;17.072;2023-05-07T07:41:41;100892.65;;;9.58;72.49
77153;BME280;66124;51.146;17.072;2023-05-07T07:44:10;100892.20;;;9.64;72.47
77153;BME280;66124;51.146;17.072;2023-05-07T07:46:40;100901.31;;;9.71;72.42
77153;BME280;66124;51.146;17.072;2023-05-07T07:49:09;100908.55;;;9.72;72.21
77153;BME280;66124;51.146;17.072;2023-05-07T07:51:39;100912.11;;;9.69;72.05
77153;BME280;66124;51.146;17.072;2023-05-07T07:54:08;100914.10;;;9.66;72.13
77153;BME280;66124;51.146;17.072;2023-05-07T07:56:38;100917.10;;;9.61;72.08
77153;BME280;66124;51.146;17.072;2023-05-07T07:59:07;100913.34;;;9.50;72.02
77153;BME280;66124;51.146;17.072;2023-05-07T08:01:37;100917.60;;;9.51;72.02
77153;BME280;66124;51.146;17.072;2023-05-07T08:04:06;100917.09;;;9.46;71.76
77153;BME280;66124;51.146;17.072;2023-05-07T08:06:36;100920.43;;;9.37;71.70
77153;BME280;66124;51.146;17.072;2023-05-07T08:09:05;100916.77;;;9.32;71.88
77153;BME280;66124;51.146;17.072;2023-05-07T08:11:35;100918.37;;;9.30;71.82
77153;BME280;66124;51.146;17.072;2023-05-07T08:14:04;100916.80;;;9.27;71.88
77153;BME280;66124;51.146;17.072;2023-05-07T08:16:34;100918.77;;;9.23;71.84
77153;BME280;66124;51.146;17.072;2023-05-07T08:19:03;100915.95;;;9.13;71.91
77153;BME280;66124;51.146;17.072;2023-05-07T08:21:32;100930.27;;;9.15;71.94
77153;BME280;66124;51.146;17.072;2023-05-07T08:24:02;100935.67;;;9.11;71.92
77153;BME280;66124;51.146;17.072;2023-05-07T08:26:30;100931.92;;;9.07;71.93
77153;BME280;66124;51.146;17.072;2023-05-07T08:28:58;100933.66;;;9.02;71.93
77153;BME280;66124;51.146;17.072;2023-05-07T08:36:15;100944.63;;;9.11;72.16
77153;BME280;66124;51.146;17.072;2023-05-07T08:38:45;100945.08;;;9.08;72.08
77153;BME280;66124;51.146;17.072;2023-05-07T08:41:14;100948.84;;;9.08;72.12
77153;BME280;66124;51.146;17.072;2023-05-07T08:43:47;100949.29;;;9.04;72.23
77153;BME280;66124;51.146;17.072;2023-05-07T08:46:19;100952.66;;;8.98;72.36
77153;BME280;66124;51.146;17.072;2023-05-07T08:48:50;100959.44;;;8.91;72.32
77153;BME280;66124;51.146;17.072;2023-05-07T08:51:21;100967.92;;;8.89;72.42
77153;BME280;66124;51.146;17.072;2023-05-07T08:53:51;100971.48;;;8.85;72.50
77153;BME280;66124;51.146;17.072;2023-05-07T08:56:20;100973.51;;;8.84;72.65
77153;BME280;66124;51.146;17.072;2023-05-07T08:58:49;100974.55;;;8.86;72.67
77153;BME280;66124;51.146;17.072;2023-05-07T09:01:19;100977.29;;;8.88;72.57
77153;BME280;66124;51.146;17.072;2023-05-07T09:03:49;100978.95;;;8.89;72.47
77153;BME280;66124;51.146;17.072;2023-05-07T09:06:19;100984.04;;;8.92;72.36
77153;BME280;66124;51.146;17.072;2023-05-07T09:08:52;100980.56;;;8.97;72.20
77153;BME280;66124;51.146;17.072;2023-05-07T09:11:25;100981.42;;;9.05;72.25
77153;BME280;66124;51.146;17.072;2023-05-07T09:13:57;100978.70;;;9.09;72.24
77153;BME280;66124;51.146;17.072;2023-05-07T09:16:29;100981.92;;;9.13;72.02
77153;BME280;66124;51.146;17.072;2023-05-07T09:19:00;100980.90;;;9.17;71.80
77153;BME280;66124;51.146;17.072;2023-05-07T09:21:29;100983.63;;;9.20;71.74
77153;BME280;66124;51.146;17.072;2023-05-07T09:23:58;100982.90;;;9.24;71.77
77153;BME280;66124;51.146;17.072;2023-05-07T09:26:28;100982.59;;;9.23;71.55
77153;BME280;66124;51.146;17.072;2023-05-07T09:28:57;100984.14;;;9.20;71.65
77153;BME280;66124;51.146;17.072;2023-05-07T09:31:27;100987.77;;;9.15;71.68
77153;BME280;66124;51.146;17.072;2023-05-07T09:33:56;100985.27;;;9.16;71.80
77153;BME280;66124;51.146;17.072;2023-05-07T09:36:28;100988.46;;;9.20;71.94
77153;BME280;66124;51.146;17.072;2023-05-07T09:39:00;100984.15;;;9.37;72.20
77153;BME280;66124;51.146;17.072;2023-05-07T09:41:31;100979.20;;;9.61;72.17
77153;BME280;66124;51.146;17.072;2023-05-07T09:44:01;100979.56;;;9.92;72.22
77153;BME280;66124;51.146;17.072;2023-05-07T09:46:29;100983.20;;;10.18;72.08
77153;BME280;66124;51.146;17.072;2023-05-07T09:52:01;100982.92;;;10.73;71.32
77153;BME280;66124;51.146;17.072;2023-05-07T09:54:33;100985.66;;;10.90;70.57
77153;BME280;66124;51.146;17.072;2023-05-07T09:57:04;100984.63;;;11.04;70.04
77153;BME280;66124;51.146;17.072;2023-05-07T09:59:34;100982.88;;;11.15;69.41
77153;BME280;66124;51.146;17.072;2023-05-07T10:02:04;100984.80;;;11.25;69.17
77153;BME280;66124;51.146;17.072;2023-05-07T10:04:34;100976.38;;;11.41;68.81
77153;BME280;66124;51.146;17.072;2023-05-07T10:07:04;100975.51;;;11.66;68.09
77153;BME280;66124;51.146;17.072;2023-05-07T10:09:35;100980.42;;;11.85;67.50
77153;BME280;66124;51.146;17.072;2023-05-07T10:12:06;100987.25;;;12.05;66.98
77153;BME280;66124;51.146;17.072;2023-05-07T10:14:36;100993.27;;;12.20;66.33
77153;BME280;66124;51.146;17.072;2023-05-07T10:17:07;100994.88;;;12.26;65.81
77153;BME280;66124;51.146;17.072;2023-05-07T10:19:37;100995.17;;;12.29;65.57
77153;BME280;66124;51.146;17.072;2023-05-07T10:22:08;100996.42;;;12.30;65.28
77153;BME280;66124;51.146;17.072;2023-05-07T10:24:38;100994.95;;;12.34;65.19
77153;BME280;66124;51.146;17.072;2023-05-07T10:27:10;100997.79;;;12.41;64.69
77153;BME280;66124;51.146;17.072;2023-05-07T10:29:52;101003.15;;;12.48;64.23
77153;BME280;66124;51.146;17.072;2023-05-07T10:32:38;100998.84;;;12.56;64.04
77153;BME280;66124;51.146;17.072;2023-05-07T10:35:14;100999.79;;;12.59;63.56
77153;BME280;66124;51.146;17.072;2023-05-07T10:37:45;100998.27;;;12.66;63.43
77153;BME280;66124;51.146;17.072;2023-05-07T10:40:15;101001.32;;;12.75;63.17
77153;BME280;66124;51.146;17.072;2023-05-07T10:42:57;101001.93;;;12.77;62.69
77153;BME280;66124;51.146;17.072;2023-05-07T10:45:28;100999.83;;;12.70;62.59
77153;BME280;66124;51.146;17.072;2023-05-07T10:48:11;100998.12;;;12.54;62.39
77153;BME280;66124;51.146;17.072;2023-05-07T10:50:42;100999.27;;;12.28;62.34
77153;BME280;66124;51.146;17.072;2023-05-07T10:53:25;101000.88;;;12.11;62.83
77153;BME280;66124;51.146;17.072;2023-05-07T10:56:27;101002.02;;;11.96;62.90
77153;BME280;66124;51.146;17.072;2023-05-07T10:58:57;100999.20;;;11.81;62.82
77153;BME280;66124;51.146;17.072;2023-05-07T11:01:54;101005.17;;;11.71;62.92
77153;BME280;66124;51.146;17.072;2023-05-07T11:04:23;101003.20;;;11.63;63.22
77153;BME280;66124;51.146;17.072;2023-05-07T11:15:39;100996.88;;;11.21;63.53
77153;BME280;66124;51.146;17.072;2023-05-07T11:18:09;101004.65;;;11.16;63.81
77153;BME280;66124;51.146;17.072;2023-05-07T11:20:58;101009.27;;;11.12;63.78
77153;BME280;66124;51.146;17.072;2023-05-07T11:23:59;101014.13;;;11.06;64.04
77153;BME280;66124;51.146;17.072;2023-05-07T11:26:31;101014.69;;;10.94;64.31
77153;BME280;66124;51.146;17.072;2023-05-07T11:29:14;101021.87;;;10.85;64.25
77153;BME280;66124;51.146;17.072;2023-05-07T11:31:44;101026.77;;;10.79;64.39
77153;BME280;66124;51.146;17.072;2023-05-07T11:34:22;101023.30;;;10.73;64.42
77153;BME280;66124;51.146;17.072;2023-05-07T11:36:52;101028.56;;;10.72;64.39
77153;BME280;66124;51.146;17.072;2023-05-07T11:39:30;101032.60;;;10.78;64.52
77153;BME280;66124;51.146;17.072;2023-05-07T11:42:01;101036.80;;;10.85;64.60
77153;BME280;66124;51.146;17.072;2023-05-07T11:44:43;101041.10;;;10.91;65.07
77153;BME280;66124;51.146;17.072;2023-05-07T11:47:18;101042.00;;;10.98;64.98
77153;BME280;66124;51.146;17.072;2023-05-07T11:49:49;101046.02;;;10.97;64.56
77153;BME280;66124;51.146;17.072;2023-05-07T11:52:20;101047.74;;;10.95;64.72
77153;BME280;66124;51.146;17.072;2023-05-07T11:54:52;101050.23;;;10.93;64.89
77153;BME280;66124;51.146;17.072;2023-05-07T11:57:22;101056.69;;;10.95;64.58
77153;BME280;66124;51.146;17.072;2023-05-07T11:59:55;101052.11;;;10.97;64.13
77153;BME280;66124;51.146;17.072;2023-05-07T12:02:25;101053.37;;;10.98;64.06
77153;BME280;66124;51.146;17.072;2023-05-07T12:04:54;101056.14;;;11.05;63.91
77153;BME280;66124;51.146;17.072;2023-05-07T12:07:25;101054.31;;;11.12;63.89
77153;BME280;66124;51.146;17.072;2023-05-07T12:09:55;101055.91;;;11.15;63.81
77153;BME280;66124;51.146;17.072;2023-05-07T12:12:24;101054.46;;;11.16;63.54
77153;BME280;66124;51.146;17.072;2023-05-07T12:14:53;101057.17;;;11.08;63.59
77153;BME280;66124;51.146;17.072;2023-05-07T12:17:23;101056.63;;;11.00;63.84
77153;BME280;66124;51.146;17.072;2023-05-07T12:19:53;101056.64;;;10.99;63.60
77153;BME280;66124;51.146;17.072;2023-05-07T12:22:23;101053.10;;;10.97;63.62
77153;BME280;66124;51.146;17.072;2023-05-07T12:24:58;101061.27;;;10.96;63.68
77153;BME280;66124;51.146;17.072;2023-05-07T12:27:26;101062.00;;;10.95;63.21
77153;BME280;66124;51.146;17.072;2023-05-07T12:32:38;101062.33;;;10.97;63.47
77153;BME280;66124;51.146;17.072;2023-05-07T12:35:09;101066.29;;;10.92;63.50
77153;BME280;66124;51.146;17.072;2023-05-07T12:37:38;101071.16;;;10.91;63.68
77153;BME280;66124;51.146;17.072;2023-05-07T12:40:10;101072.08;;;10.89;63.71
77153;BME280;66124;51.146;17.072;2023-05-07T12:42:40;101075.17;;;10.87;63.88
77153;BME280;66124;51.146;17.072;2023-05-07T12:45:11;101071.05;;;10.89;63.89
77153;BME280;66124;51.146;17.072;2023-05-07T12:47:45;101067.85;;;10.88;63.41
77153;BME280;66124;51.146;17.072;2023-05-07T12:50:15;101069.30;;;10.87;63.22
77153;BME280;66124;51.146;17.072;2023-05-07T12:52:48;101074.55;;;10.92;63.76
77153;BME280;66124;51.146;17.072;2023-05-07T12:55:18;101073.49;;;10.99;63.50
77153;BME280;66124;51.146;17.072;2023-05-07T12:57:49;101070.46;;;11.01;63.58
77153;BME280;66124;51.146;17.072;2023-05-07T13:00:20;101076.21;;;11.05;63.73
77153;BME280;66124;51.146;17.072;2023-05-07T13:03:01;101081.50;;;11.10;63.51
77153;BME280;66124;51.146;17.072;2023-05-07T13:05:30;101082.98;;;11.10;63.37
77153;BME280;66124;51.146;17.072;2023-05-07T13:08:00;101085.53;;;11.11;63.32
77153;BME280;66124;51.146;17.072;2023-05-07T13:10:29;101088.20;;;11.13;63.28
77153;BME280;66124;51.146;17.072;2023-05-07T13:12:59;101088.20;;;11.16;63.04
77153;BME280;66124;51.146;17.072;2023-05-07T13:15:28;101090.80;;;11.21;62.83
77153;BME280;66124;51.146;17.072;2023-05-07T13:17:58;101089.06;;;11.28;62.79
77153;BME280;66124;51.146;17.072;2023-05-07T13:20:27;101096.85;;;11.31;62.85
77153;BME280;66124;51.146;17.072;2023-05-07T13:22:57;101103.88;;;11.28;62.81
77153;BME280;66124;51.146;17.072;2023-05-07T13:25:26;101105.92;;;11.25;63.08
77153;BME280;66124;51.146;17.072;2023-05-07T13:27:56;101107.52;;;11.21;62.79
77153;BME280;66124;51.146;17.072;2023-05-07T13:30:25;101106.37;;;11.19;62.58
77153;BME280;66124;51.146;17.072;2023-05-07T13:32:56;101107.57;;;11.11;62.20
77153;BME280;66124;51.146;17.072;2023-05-07T13:35:26;101109.13;;;11.03;62.26
77153;BME280;66124;51.146;17.072;2023-05-07T13:37:55;101115.52;;;10.99;62.37
77153;BME280;66124;51.146;17.072;2023-05-07T13:40:25;101113.83;;;10.97;62.47
77153;BME280;66124;51.146;17.072;2023-05-07T13:42:53;101113.45;;;10.94;62.58
77153;BME280;66124;51.146;17.072;2023-05-07T13:45:21;101111.96;;;10.91;62.60
77153;BME280;66124;51.146;17.072;2023-05-07T13:53:12;101111.59;;;10.78;62.46
77153;BME280;66124;51.146;17.072;2023-05-07T13:55:42;101110.79;;;10.71;62.41
77153;BME280;66124;51.146;17.072;2023-05-07T13:58:11;101110.27;;;10.73;62.68
77153;BME280;66124;51.146;17.072;2023-05-07T14:00:40;101108.73;;;10.79;62.87
77153;BME280;66124;51.146;17.072;2023-05-07T14:03:10;101110.97;;;10.81;62.64
77153;BME280;66124;51.146;17.072;2023-05-07T14:05:41;101107.06;;;10.79;62.43
77153;BME280;66124;51.146;17.072;2023-05-07T14:08:10;101108.66;;;10.71;62.15
77153;BME280;66124;51.146;17.072;2023-05-07T14:10:39;101116.30;;;10.64;62.44
77153;BME280;66124;51.146;17.072;2023-05-07T14:13:09;101110.05;;;10.58;62.56
77153;BME280;66124;51.146;17.072;2023-05-07T14:15:38;101110.80;;;10.52;62.84
77153;BME280;66124;51.146;17.072;2023-05-07T14:18:08;101114.71;;;10.50;62.84
77153;BME280;66124;51.146;17.072;2023-05-07T14:20:37;101112.70;;;10.50;63.04
77153;BME280;66124;51.146;17.072;2023-05-07T14:23:07;101109.91;;;10.50;63.22
77153;BME280;66124;51.146;17.072;2023-05-07T14:25:36;101109.45;;;10.44;62.96